sensor_id;sensor_type;location;lat;lon;timestamp;P1;durP1;ratioP1;P2;durP2;ratioP2
69573;SDS011;62840;52.366;5.980;2023-11-19T00:00:08;14.15;;;4.95;;
69573;SDS011;62840;52.366;5.980;2023-11-19T00:02:35;13.27;;;4.20;;
69573;SDS011;62840;52.366;5.980;2023-11-19T00:05:01;12.40;;;5.00;;
69573;SDS011;62840;52.366;5.980;2023-11-19T00:07:27;11.35;;;4.40;;
69573;SDS011;62840;52.366;5.980;2023-11-19T00:09:53;11.93;;;4.45;;
69573;SDS011;62840;52.366;5.980;2023-11-19T00:12:22;11.90;;;4.70;;
69573;SDS011;62840;52.366;5.980;2023-11-19T00:14:47;12.63;;;3.70;;
69573;SDS011;62840;52.366;5.980;2023-11-19T00:17:13;13.18;;;3.90;;
69573;SDS011;62840;52.366;5.980;2023-11-19T00:19:39;9.43;;;4.10;;
69573;SDS011;62840;52.366;5.980;2023-11-19T00:22:05;9.57;;;3.50;;
69573;SDS011;62840;52.366;5.980;2023-11-19T00:24:30;11.57;;;3.50;;
69573;SDS011;62840;52.366;5.980;2023-11-19T00:26:56;9.18;;;3.35;;
69573;SDS011;62840;52.366;5.980;2023-11-19T00:29:24;9.57;;;3.33;;
69573;SDS011;62840;52.366;5.980;2023-11-19T00:31:50;13.10;;;3.45;;
69573;SDS011;62840;52.366;5.980;2023-11-19T00:34:16;12.55;;;3.40;;
69573;SDS011;62840;52.366;5.980;2023-11-19T00:36:42;9.50;;;3.33;;
69573;SDS011;62840;52.366;5.980;2023-11-19T00:39:07;8.30;;;2.92;;
69573;SDS011;62840;52.366;5.980;2023-11-19T00:41:33;11.83;;;3.13;;
69573;SDS011;62840;52.366;5.980;2023-11-19T00:43:59;9.82;;;3.10;;
69573;SDS011;62840;52.366;5.980;2023-11-19T00:46:27;9.57;;;2.83;;
69573;SDS011;62840;52.366;5.980;2023-11-19T00:48:53;10.05;;;3.10;;
69573;SDS011;62840;52.366;5.980;2023-11-19T00:51:19;10.53;;;3.00;;
69573;SDS011;62840;52.366;5.980;2023-11-19T00:53:44;12.40;;;3.17;;
69573;SDS011;62840;52.366;5.980;2023-11-19T00:56:10;17.07;;;3.33;;
69573;SDS011;62840;52.366;5.980;2023-11-19T00:58:36;10.02;;;3.10;;
69573;SDS011;62840;52.366;5.980;2023-11-19T01:01:02;10.00;;;2.87;;
69573;SDS011;62840;52.366;5.980;2023-11-19T01:03:31;7.53;;;2.70;;
69573;SDS011;62840;52.366;5.980;2023-11-19T01:05:56;9.05;;;2.35;;
69573;SDS011;62840;52.366;5.980;2023-11-19T01:08:22;12.13;;;2.30;;
69573;SDS011;62840;52.366;5.980;2023-11-19T01:10:48;8.02;;;2.30;;
69573;SDS011;62840;52.366;5.980;2023-11-19T01:13:14;10.98;;;2.40;;
69573;SDS011;62840;52.366;5.980;2023-11-19T01:15:39;10.02;;;2.03;;
69573;SDS011;62840;52.366;5.980;2023-11-19T01:18:05;8.82;;;2.03;;
69573;SDS011;62840;52.366;5.980;2023-11-19T01:20:33;13.45;;;2.47;;
69573;SDS011;62840;52.366;5.980;2023-11-19T01:22:59;8.75;;;2.25;;
69573;SDS011;62840;52.366;5.980;2023-11-19T01:25:25;13.57;;;2.27;;
69573;SDS011;62840;52.366;5.980;2023-11-19T01:27:51;9.80;;;2.30;;
69573;SDS011;62840;52.366;5.980;2023-11-19T01:30:17;9.73;;;2.70;;
69573;SDS011;62840;52.366;5.980;2023-11-19T01:32:42;8.77;;;1.80;;
69573;SDS011;62840;52.366;5.980;2023-11-19T01:35:08;10.90;;;2.17;;
69573;SDS011;62840;52.366;5.980;2023-11-19T01:37:37;9.07;;;2.30;;
69573;SDS011;62840;52.366;5.980;2023-11-19T01:40:03;8.68;;;1.95;;
69573;SDS011;62840;52.366;5.980;2023-11-19T01:42:29;12.07;;;2.70;;
69573;SDS011;62840;52.366;5.980;2023-11-19T01:45:01;14.77;;;2.20;;
69573;SDS011;62840;52.366;5.980;2023-11-19T01:47:27;14.73;;;2.30;;
69573;SDS011;62840;52.366;5.980;2023-11-19T01:49:55;8.48;;;2.47;;
69573;SDS011;62840;52.366;5.980;2023-11-19T01:52:24;10.40;;;2.00;;
69573;SDS011;62840;52.366;5.980;2023-11-19T01:54:54;12.35;;;2.15;;
69573;SDS011;62840;52.366;5.980;2023-11-19T01:57:21;10.27;;;2.00;;
69573;SDS011;62840;52.366;5.980;2023-11-19T01:59:49;10.70;;;2.08;;
69573;SDS011;62840;52.366;5.980;2023-11-19T02:02:17;11.48;;;2.15;;
69573;SDS011;62840;52.366;5.980;2023-11-19T02:04:44;9.73;;;2.20;;
69573;SDS011;62840;52.366;5.980;2023-11-19T02:07:09;8.80;;;2.13;;
69573;SDS011;62840;52.366;5.980;2023-11-19T02:09:35;9.32;;;1.90;;
69573;SDS011;62840;52.366;5.980;2023-11-19T02:12:04;9.63;;;2.22;;
69573;SDS011;62840;52.366;5.980;2023-11-19T02:14:31;7.13;;;1.73;;
69573;SDS011;62840;52.366;5.980;2023-11-19T02:16:57;8.75;;;2.13;;
69573;SDS011;62840;52.366;5.980;2023-11-19T02:19:23;9.85;;;1.90;;
69573;SDS011;62840;52.366;5.980;2023-11-19T02:21:49;12.77;;;2.35;;
69573;SDS011;62840;52.366;5.980;2023-11-19T02:24:15;12.63;;;2.67;;
69573;SDS011;62840;52.366;5.980;2023-11-19T02:26:50;11.53;;;2.20;;
69573;SDS011;62840;52.366;5.980;2023-11-19T02:29:30;10.82;;;2.03;;
69573;SDS011;62840;52.366;5.980;2023-11-19T02:31:55;10.90;;;1.98;;
69573;SDS011;62840;52.366;5.980;2023-11-19T02:34:21;12.43;;;2.40;;
69573;SDS011;62840;52.366;5.980;2023-11-19T02:36:47;10.60;;;2.50;;
69573;SDS011;62840;52.366;5.980;2023-11-19T02:39:13;13.23;;;2.05;;
69573;SDS011;62840;52.366;5.980;2023-11-19T02:41:39;12.03;;;2.80;;
69573;SDS011;62840;52.366;5.980;2023-11-19T02:44:05;12.80;;;2.67;;
69573;SDS011;62840;52.366;5.980;2023-11-19T02:46:34;13.15;;;2.65;;
69573;SDS011;62840;52.366;5.980;2023-11-19T02:49:00;16.40;;;3.25;;
69573;SDS011;62840;52.366;5.980;2023-11-19T02:51:25;18.60;;;2.70;;
69573;SDS011;62840;52.366;5.980;2023-11-19T02:53:51;14.02;;;2.58;;
69573;SDS011;62840;52.366;5.980;2023-11-19T02:56:17;10.23;;;1.90;;
69573;SDS011;62840;52.366;5.980;2023-11-19T02:58:43;18.85;;;2.47;;
69573;SDS011;62840;52.366;5.980;2023-11-19T03:01:09;13.40;;;2.30;;
69573;SDS011;62840;52.366;5.980;2023-11-19T03:03:38;12.65;;;1.98;;
69573;SDS011;62840;52.366;5.980;2023-11-19T03:06:04;14.63;;;2.15;;
69573;SDS011;62840;52.366;5.980;2023-11-19T03:08:30;20.90;;;3.22;;
69573;SDS011;62840;52.366;5.980;2023-11-19T03:10:56;15.43;;;2.50;;
69573;SDS011;62840;52.366;5.980;2023-11-19T03:13:22;12.80;;;2.38;;
69573;SDS011;62840;52.366;5.980;2023-11-19T03:15:47;10.27;;;2.33;;
69573;SDS011;62840;52.366;5.980;2023-11-19T03:18:13;14.20;;;2.70;;
69573;SDS011;62840;52.366;5.980;2023-11-19T03:20:42;10.03;;;2.33;;
69573;SDS011;62840;52.366;5.980;2023-11-19T03:23:08;16.17;;;3.00;;
69573;SDS011;62840;52.366;5.980;2023-11-19T03:25:33;15.35;;;2.78;;
69573;SDS011;62840;52.366;5.980;2023-11-19T03:28:00;20.87;;;3.17;;
69573;SDS011;62840;52.366;5.980;2023-11-19T03:30:26;13.40;;;2.60;;
69573;SDS011;62840;52.366;5.980;2023-11-19T03:32:52;15.65;;;2.72;;
69573;SDS011;62840;52.366;5.980;2023-11-19T03:35:17;12.87;;;2.43;;
69573;SDS011;62840;52.366;5.980;2023-11-19T03:37:46;10.68;;;2.53;;
69573;SDS011;62840;52.366;5.980;2023-11-19T03:40:12;16.27;;;2.50;;
69573;SDS011;62840;52.366;5.980;2023-11-19T03:42:38;17.47;;;2.80;;
69573;SDS011;62840;52.366;5.980;2023-11-19T03:45:04;14.52;;;2.58;;
69573;SDS011;62840;52.366;5.980;2023-11-19T03:47:31;14.93;;;2.40;;
69573;SDS011;62840;52.366;5.980;2023-11-19T03:49:57;16.23;;;2.70;;
69573;SDS011;62840;52.366;5.980;2023-11-19T03:52:23;18.42;;;2.97;;
69573;SDS011;62840;52.366;5.980;2023-11-19T03:54:51;16.87;;;2.30;;
69573;SDS011;62840;52.366;5.980;2023-11-19T03:57:17;17.67;;;2.60;;
69573;SDS011;62840;52.366;5.980;2023-11-19T03:59:42;15.27;;;2.53;;
69573;SDS011;62840;52.366;5.980;2023-11-19T04:02:08;20.17;;;2.97;;
69573;SDS011;62840;52.366;5.980;2023-11-19T04:04:34;13.82;;;2.85;;
69573;SDS011;62840;52.366;5.980;2023-11-19T04:07:00;13.55;;;2.63;;
69573;SDS011;62840;52.366;5.980;2023-11-19T04:09:26;13.55;;;2.40;;
69573;SDS011;62840;52.366;5.980;2023-11-19T04:11:55;16.42;;;2.30;;
69573;SDS011;62840;52.366;5.980;2023-11-19T04:14:21;15.40;;;2.70;;
69573;SDS011;62840;52.366;5.980;2023-11-19T04:16:46;14.40;;;2.23;;
69573;SDS011;62840;52.366;5.980;2023-11-19T04:19:12;19.23;;;3.30;;
69573;SDS011;62840;52.366;5.980;2023-11-19T04:21:39;18.50;;;3.00;;
69573;SDS011;62840;52.366;5.980;2023-11-19T04:24:06;17.38;;;2.53;;
69573;SDS011;62840;52.366;5.980;2023-11-19T04:26:33;13.02;;;2.55;;
69573;SDS011;62840;52.366;5.980;2023-11-19T04:29:02;22.15;;;3.00;;
69573;SDS011;62840;52.366;5.980;2023-11-19T04:31:28;13.87;;;2.13;;
69573;SDS011;62840;52.366;5.980;2023-11-19T04:33:54;15.15;;;2.33;;
69573;SDS011;62840;52.366;5.980;2023-11-19T04:36:20;17.38;;;2.83;;
69573;SDS011;62840;52.366;5.980;2023-11-19T04:38:46;15.37;;;2.83;;
69573;SDS011;62840;52.366;5.980;2023-11-19T04:41:11;14.73;;;2.90;;
69573;SDS011;62840;52.366;5.980;2023-11-19T04:43:37;13.70;;;2.30;;
69573;SDS011;62840;52.366;5.980;2023-11-19T04:46:06;12.48;;;2.33;;
69573;SDS011;62840;52.366;5.980;2023-11-19T04:48:34;19.48;;;3.13;;
69573;SDS011;62840;52.366;5.980;2023-11-19T04:51:00;18.20;;;2.60;;
69573;SDS011;62840;52.366;5.980;2023-11-19T04:53:26;20.60;;;3.33;;
69573;SDS011;62840;52.366;5.980;2023-11-19T04:55:51;15.50;;;2.47;;
69573;SDS011;62840;52.366;5.980;2023-11-19T04:58:17;18.58;;;3.03;;
69573;SDS011;62840;52.366;5.980;2023-11-19T05:00:43;19.93;;;3.00;;
69573;SDS011;62840;52.366;5.980;2023-11-19T05:03:12;14.65;;;3.20;;
69573;SDS011;62840;52.366;5.980;2023-11-19T05:05:37;14.23;;;2.30;;
69573;SDS011;62840;52.366;5.980;2023-11-19T05:08:03;20.03;;;3.13;;
69573;SDS011;62840;52.366;5.980;2023-11-19T05:10:29;17.10;;;3.15;;
69573;SDS011;62840;52.366;5.980;2023-11-19T05:12:55;15.53;;;2.60;;
69573;SDS011;62840;52.366;5.980;2023-11-19T05:15:20;17.98;;;3.00;;
69573;SDS011;62840;52.366;5.980;2023-11-19T05:17:46;12.98;;;2.53;;
69573;SDS011;62840;52.366;5.980;2023-11-19T05:20:15;17.20;;;2.87;;
69573;SDS011;62840;52.366;5.980;2023-11-19T05:22:40;20.27;;;3.55;;
69573;SDS011;62840;52.366;5.980;2023-11-19T05:25:07;17.88;;;2.67;;
69573;SDS011;62840;52.366;5.980;2023-11-19T05:27:34;19.45;;;3.42;;
69573;SDS011;62840;52.366;5.980;2023-11-19T05:30:00;17.60;;;2.60;;
69573;SDS011;62840;52.366;5.980;2023-11-19T05:32:26;15.82;;;2.72;;
69573;SDS011;62840;52.366;5.980;2023-11-19T05:34:51;14.83;;;3.00;;
69573;SDS011;62840;52.366;5.980;2023-11-19T05:37:20;16.75;;;2.15;;
69573;SDS011;62840;52.366;5.980;2023-11-19T05:39:45;19.42;;;2.78;;
69573;SDS011;62840;52.366;5.980;2023-11-19T05:42:11;15.57;;;2.77;;
69573;SDS011;62840;52.366;5.980;2023-11-19T05:44:37;17.17;;;2.70;;
69573;SDS011;62840;52.366;5.980;2023-11-19T05:47:03;12.70;;;3.03;;
69573;SDS011;62840;52.366;5.980;2023-11-19T05:49:29;17.90;;;2.97;;
69573;SDS011;62840;52.366;5.980;2023-11-19T05:51:55;14.63;;;2.55;;
69573;SDS011;62840;52.366;5.980;2023-11-19T05:54:23;21.47;;;2.90;;
69573;SDS011;62840;52.366;5.980;2023-11-19T05:56:49;18.58;;;3.13;;
69573;SDS011;62840;52.366;5.980;2023-11-19T05:59:15;18.33;;;2.90;;
69573;SDS011;62840;52.366;5.980;2023-11-19T06:01:41;19.95;;;3.15;;
69573;SDS011;62840;52.366;5.980;2023-11-19T06:04:07;22.20;;;3.47;;
69573;SDS011;62840;52.366;5.980;2023-11-19T06:06:32;20.07;;;3.10;;
69573;SDS011;62840;52.366;5.980;2023-11-19T06:08:58;13.77;;;2.22;;
69573;SDS011;62840;52.366;5.980;2023-11-19T06:11:27;20.27;;;2.63;;
69573;SDS011;62840;52.366;5.980;2023-11-19T06:13:53;16.98;;;2.55;;
69573;SDS011;62840;52.366;5.980;2023-11-19T06:16:19;17.30;;;3.13;;
69573;SDS011;62840;52.366;5.980;2023-11-19T06:18:45;13.77;;;2.30;;
69573;SDS011;62840;52.366;5.980;2023-11-19T06:21:11;18.97;;;3.10;;
69573;SDS011;62840;52.366;5.980;2023-11-19T06:23:37;18.15;;;2.50;;
69573;SDS011;62840;52.366;5.980;2023-11-19T06:26:03;17.70;;;3.20;;
69573;SDS011;62840;52.366;5.980;2023-11-19T06:28:32;16.70;;;2.93;;
69573;SDS011;62840;52.366;5.980;2023-11-19T06:30:58;16.05;;;2.60;;
69573;SDS011;62840;52.366;5.980;2023-11-19T06:33:24;18.15;;;2.80;;
69573;SDS011;62840;52.366;5.980;2023-11-19T06:35:49;17.43;;;3.33;;
69573;SDS011;62840;52.366;5.980;2023-11-19T06:38:15;13.85;;;2.20;;
69573;SDS011;62840;52.366;5.980;2023-11-19T06:40:41;19.25;;;2.55;;
69573;SDS011;62840;52.366;5.980;2023-11-19T06:43:07;19.53;;;2.80;;
69573;SDS011;62840;52.366;5.980;2023-11-19T06:45:35;17.90;;;2.55;;
69573;SDS011;62840;52.366;5.980;2023-11-19T06:48:01;20.88;;;2.55;;
69573;SDS011;62840;52.366;5.980;2023-11-19T06:50:27;15.07;;;2.30;;
69573;SDS011;62840;52.366;5.980;2023-11-19T06:52:53;16.92;;;2.47;;
69573;SDS011;62840;52.366;5.980;2023-11-19T06:55:19;17.53;;;2.57;;
69573;SDS011;62840;52.366;5.980;2023-11-19T06:57:44;15.98;;;2.92;;
69573;SDS011;62840;52.366;5.980;2023-11-19T07:00:11;20.27;;;2.97;;
69573;SDS011;62840;52.366;5.980;2023-11-19T07:02:40;17.77;;;2.75;;
69573;SDS011;62840;52.366;5.980;2023-11-19T07:05:06;21.10;;;2.92;;
69573;SDS011;62840;52.366;5.980;2023-11-19T07:07:33;15.32;;;2.42;;
69573;SDS011;62840;52.366;5.980;2023-11-19T07:09:59;12.48;;;2.75;;
69573;SDS011;62840;52.366;5.980;2023-11-19T07:12:24;17.87;;;2.87;;
69573;SDS011;62840;52.366;5.980;2023-11-19T07:14:50;19.00;;;2.45;;
69573;SDS011;62840;52.366;5.980;2023-11-19T07:17:16;14.47;;;2.43;;
69573;SDS011;62840;52.366;5.980;2023-11-19T07:19:44;18.48;;;2.70;;
69573;SDS011;62840;52.366;5.980;2023-11-19T07:22:10;13.75;;;1.75;;
69573;SDS011;62840;52.366;5.980;2023-11-19T07:24:36;20.43;;;2.80;;
69573;SDS011;62840;52.366;5.980;2023-11-19T07:27:04;20.20;;;2.25;;
69573;SDS011;62840;52.366;5.980;2023-11-19T07:29:30;20.07;;;2.47;;
69573;SDS011;62840;52.366;5.980;2023-11-19T07:31:56;14.82;;;2.30;;
69573;SDS011;62840;52.366;5.980;2023-11-19T07:34:21;15.57;;;3.35;;
69573;SDS011;62840;52.366;5.980;2023-11-19T07:36:50;16.08;;;2.30;;
69573;SDS011;62840;52.366;5.980;2023-11-19T07:39:15;14.43;;;2.20;;
69573;SDS011;62840;52.366;5.980;2023-11-19T07:41:41;20.63;;;2.40;;
69573;SDS011;62840;52.366;5.980;2023-11-19T07:44:07;19.45;;;2.33;;
69573;SDS011;62840;52.366;5.980;2023-11-19T07:46:33;19.67;;;2.37;;
69573;SDS011;62840;52.366;5.980;2023-11-19T07:48:59;13.85;;;2.63;;
69573;SDS011;62840;52.366;5.980;2023-11-19T07:51:24;15.68;;;2.72;;
69573;SDS011;62840;52.366;5.980;2023-11-19T07:53:53;15.93;;;2.20;;
69573;SDS011;62840;52.366;5.980;2023-11-19T07:56:18;16.90;;;2.60;;
69573;SDS011;62840;52.366;5.980;2023-11-19T07:58:44;17.13;;;2.77;;
69573;SDS011;62840;52.366;5.980;2023-11-19T08:01:10;14.90;;;2.05;;
69573;SDS011;62840;52.366;5.980;2023-11-19T08:03:36;22.58;;;3.40;;
69573;SDS011;62840;52.366;5.980;2023-11-19T08:06:03;20.13;;;3.43;;
69573;SDS011;62840;52.366;5.980;2023-11-19T08:08:29;19.65;;;2.90;;
69573;SDS011;62840;52.366;5.980;2023-11-19T08:10:58;19.38;;;2.70;;
69573;SDS011;62840;52.366;5.980;2023-11-19T08:13:23;16.57;;;2.60;;
69573;SDS011;62840;52.366;5.980;2023-11-19T08:15:49;22.05;;;3.05;;
69573;SDS011;62840;52.366;5.980;2023-11-19T08:18:15;18.77;;;2.90;;
69573;SDS011;62840;52.366;5.980;2023-11-19T08:20:41;17.67;;;2.57;;
69573;SDS011;62840;52.366;5.980;2023-11-19T08:23:07;16.17;;;2.38;;
69573;SDS011;62840;52.366;5.980;2023-11-19T08:25:33;17.63;;;2.90;;
69573;SDS011;62840;52.366;5.980;2023-11-19T08:28:01;20.70;;;2.70;;
69573;SDS011;62840;52.366;5.980;2023-11-19T08:30:28;17.08;;;2.40;;
69573;SDS011;62840;52.366;5.980;2023-11-19T08:32:54;15.38;;;3.38;;
69573;SDS011;62840;52.366;5.980;2023-11-19T08:35:20;21.80;;;5.37;;
69573;SDS011;62840;52.366;5.980;2023-11-19T08:37:46;38.15;;;13.55;;
69573;SDS011;62840;52.366;5.980;2023-11-19T08:40:12;25.95;;;6.70;;
69573;SDS011;62840;52.366;5.980;2023-11-19T08:42:38;24.27;;;8.27;;
69573;SDS011;62840;52.366;5.980;2023-11-19T08:45:07;19.52;;;6.97;;
69573;SDS011;62840;52.366;5.980;2023-11-19T08:47:33;24.00;;;7.32;;
69573;SDS011;62840;52.366;5.980;2023-11-19T08:49:59;19.97;;;6.60;;
69573;SDS011;62840;52.366;5.980;2023-11-19T08:52:25;31.58;;;15.82;;
69573;SDS011;62840;52.366;5.980;2023-11-19T08:54:51;23.47;;;5.57;;
69573;SDS011;62840;52.366;5.980;2023-11-19T08:57:16;24.02;;;7.25;;
69573;SDS011;62840;52.366;5.980;2023-11-19T08:59:42;14.10;;;3.37;;
69573;SDS011;62840;52.366;5.980;2023-11-19T09:02:10;21.95;;;5.85;;
69573;SDS011;62840;52.366;5.980;2023-11-19T09:04:36;19.35;;;5.43;;
69573;SDS011;62840;52.366;5.980;2023-11-19T09:07:02;27.20;;;10.87;;
69573;SDS011;62840;52.366;5.980;2023-11-19T09:09:28;13.75;;;3.20;;
69573;SDS011;62840;52.366;5.980;2023-11-19T09:11:54;19.88;;;6.38;;
69573;SDS011;62840;52.366;5.980;2023-11-19T09:14:20;16.23;;;4.40;;
69573;SDS011;62840;52.366;5.980;2023-11-19T09:16:46;22.60;;;6.13;;
69573;SDS011;62840;52.366;5.980;2023-11-19T09:19:14;29.23;;;9.50;;
69573;SDS011;62840;52.366;5.980;2023-11-19T09:21:40;36.17;;;11.52;;
69573;SDS011;62840;52.366;5.980;2023-11-19T09:24:06;27.55;;;7.55;;
69573;SDS011;62840;52.366;5.980;2023-11-19T09:26:32;15.88;;;5.00;;
69573;SDS011;62840;52.366;5.980;2023-11-19T09:28:58;24.25;;;7.35;;
69573;SDS011;62840;52.366;5.980;2023-11-19T09:31:24;23.15;;;6.50;;
69573;SDS011;62840;52.366;5.980;2023-11-19T09:33:49;17.92;;;3.58;;
69573;SDS011;62840;52.366;5.980;2023-11-19T09:36:18;19.70;;;5.18;;
69573;SDS011;62840;52.366;5.980;2023-11-19T09:38:44;33.83;;;11.67;;
69573;SDS011;62840;52.366;5.980;2023-11-19T09:41:09;25.35;;;7.88;;
69573;SDS011;62840;52.366;5.980;2023-11-19T09:43:36;21.00;;;4.50;;
69573;SDS011;62840;52.366;5.980;2023-11-19T09:46:04;29.60;;;7.10;;
69573;SDS011;62840;52.366;5.980;2023-11-19T09:48:32;12.67;;;2.43;;
69573;SDS011;62840;52.366;5.980;2023-11-19T09:51:00;20.00;;;3.10;;
69573;SDS011;62840;52.366;5.980;2023-11-19T09:53:29;17.42;;;3.63;;
69573;SDS011;62840;52.366;5.980;2023-11-19T09:55:56;20.08;;;3.13;;
69573;SDS011;62840;52.366;5.980;2023-11-19T09:58:23;21.23;;;3.10;;
69573;SDS011;62840;52.366;5.980;2023-11-19T10:00:49;15.40;;;3.13;;
69573;SDS011;62840;52.366;5.980;2023-11-19T10:03:15;18.63;;;3.40;;
69573;SDS011;62840;52.366;5.980;2023-11-19T10:05:42;18.77;;;3.00;;
69573;SDS011;62840;52.366;5.980;2023-11-19T10:08:08;17.03;;;2.50;;
69573;SDS011;62840;52.366;5.980;2023-11-19T10:10:36;17.95;;;2.78;;
69573;SDS011;62840;52.366;5.980;2023-11-19T10:13:02;14.37;;;2.50;;
69573;SDS011;62840;52.366;5.980;2023-11-19T10:15:28;14.35;;;2.65;;
69573;SDS011;62840;52.366;5.980;2023-11-19T10:18:02;18.10;;;2.83;;
69573;SDS011;62840;52.366;5.980;2023-11-19T10:20:28;22.42;;;4.43;;
69573;SDS011;62840;52.366;5.980;2023-11-19T10:22:54;16.20;;;2.97;;
69573;SDS011;62840;52.366;5.980;2023-11-19T10:25:24;13.55;;;2.92;;
69573;SDS011;62840;52.366;5.980;2023-11-19T10:27:54;20.38;;;3.45;;
69573;SDS011;62840;52.366;5.980;2023-11-19T10:30:21;16.73;;;2.33;;
69573;SDS011;62840;52.366;5.980;2023-11-19T10:33:04;16.90;;;2.35;;
69573;SDS011;62840;52.366;5.980;2023-11-19T10:35:32;19.73;;;2.57;;
69573;SDS011;62840;52.366;5.980;2023-11-19T10:37:59;18.70;;;2.53;;
69573;SDS011;62840;52.366;5.980;2023-11-19T10:40:33;19.33;;;3.03;;
69573;SDS011;62840;52.366;5.980;2023-11-19T10:43:06;18.58;;;2.33;;
69573;SDS011;62840;52.366;5.980;2023-11-19T10:45:32;12.82;;;2.47;;
69573;SDS011;62840;52.366;5.980;2023-11-19T10:47:58;13.93;;;2.50;;
69573;SDS011;62840;52.366;5.980;2023-11-19T10:50:24;21.00;;;3.90;;
69573;SDS011;62840;52.366;5.980;2023-11-19T10:52:50;13.60;;;2.47;;
69573;SDS011;62840;52.366;5.980;2023-11-19T10:55:21;18.85;;;2.63;;
69573;SDS011;62840;52.366;5.980;2023-11-19T10:57:53;20.03;;;2.57;;
69573;SDS011;62840;52.366;5.980;2023-11-19T11:00:27;16.10;;;2.55;;
69573;SDS011;62840;52.366;5.980;2023-11-19T11:02:56;15.63;;;3.05;;
69573;SDS011;62840;52.366;5.980;2023-11-19T11:05:26;14.80;;;2.30;;
69573;SDS011;62840;52.366;5.980;2023-11-19T11:07:55;16.20;;;3.03;;
69573;SDS011;62840;52.366;5.980;2023-11-19T11:10:21;12.80;;;3.30;;
69573;SDS011;62840;52.366;5.980;2023-11-19T11:12:51;14.55;;;3.33;;
69573;SDS011;62840;52.366;5.980;2023-11-19T11:15:19;37.90;;;7.75;;
69573;SDS011;62840;52.366;5.980;2023-11-19T11:17:49;17.92;;;3.05;;
69573;SDS011;62840;52.366;5.980;2023-11-19T11:20:18;16.08;;;3.75;;
69573;SDS011;62840;52.366;5.980;2023-11-19T11:22:48;17.70;;;3.30;;
69573;SDS011;62840;52.366;5.980;2023-11-19T11:25:37;19.45;;;3.08;;
69573;SDS011;62840;52.366;5.980;2023-11-19T11:28:23;15.52;;;3.30;;
69573;SDS011;62840;52.366;5.980;2023-11-19T11:34:19;16.08;;;2.42;;
69573;SDS011;62840;52.366;5.980;2023-11-19T11:37:10;18.40;;;2.30;;
69573;SDS011;62840;52.366;5.980;2023-11-19T11:39:44;14.00;;;2.10;;
69573;SDS011;62840;52.366;5.980;2023-11-19T11:44:59;17.77;;;2.50;;
69573;SDS011;62840;52.366;5.980;2023-11-19T11:47:27;16.40;;;3.22;;
69573;SDS011;62840;52.366;5.980;2023-11-19T11:50:48;16.87;;;2.17;;
69573;SDS011;62840;52.366;5.980;2023-11-19T11:53:20;11.45;;;2.75;;
69573;SDS011;62840;52.366;5.980;2023-11-19T11:55:54;18.90;;;2.60;;
69573;SDS011;62840;52.366;5.980;2023-11-19T11:58:23;13.48;;;2.42;;
69573;SDS011;62840;52.366;5.980;2023-11-19T12:00:54;16.85;;;2.58;;
69573;SDS011;62840;52.366;5.980;2023-11-19T12:03:26;14.90;;;2.33;;
69573;SDS011;62840;52.366;5.980;2023-11-19T12:05:54;14.27;;;2.85;;
69573;SDS011;62840;52.366;5.980;2023-11-19T12:08:20;16.30;;;3.60;;
69573;SDS011;62840;52.366;5.980;2023-11-19T12:10:51;16.90;;;3.25;;
69573;SDS011;62840;52.366;5.980;2023-11-19T12:13:19;18.15;;;3.65;;
69573;SDS011;62840;52.366;5.980;2023-11-19T12:18:36;17.08;;;3.92;;
69573;SDS011;62840;52.366;5.980;2023-11-19T12:21:05;16.25;;;4.50;;
69573;SDS011;62840;52.366;5.980;2023-11-19T12:23:31;16.55;;;5.43;;
69573;SDS011;62840;52.366;5.980;2023-11-19T12:25:57;17.07;;;5.00;;
69573;SDS011;62840;52.366;5.980;2023-11-19T12:28:24;14.20;;;4.60;;
69573;SDS011;62840;52.366;5.980;2023-11-19T12:30:50;13.80;;;2.70;;
69573;SDS011;62840;52.366;5.980;2023-11-19T12:33:16;16.45;;;3.15;;
69573;SDS011;62840;52.366;5.980;2023-11-19T12:35:45;13.87;;;2.33;;
69573;SDS011;62840;52.366;5.980;2023-11-19T12:38:18;18.95;;;4.57;;
69573;SDS011;62840;52.366;5.980;2023-11-19T12:40:44;13.32;;;2.75;;
69573;SDS011;62840;52.366;5.980;2023-11-19T12:43:11;14.63;;;3.10;;
69573;SDS011;62840;52.366;5.980;2023-11-19T12:45:47;15.82;;;3.00;;
69573;SDS011;62840;52.366;5.980;2023-11-19T12:48:13;16.27;;;3.50;;
69573;SDS011;62840;52.366;5.980;2023-11-19T12:50:54;15.63;;;4.63;;
69573;SDS011;62840;52.366;5.980;2023-11-19T12:53:22;18.38;;;5.88;;
69573;SDS011;62840;52.366;5.980;2023-11-19T12:55:50;16.63;;;4.03;;
69573;SDS011;62840;52.366;5.980;2023-11-19T12:58:29;12.18;;;2.35;;
69573;SDS011;62840;52.366;5.980;2023-11-19T13:00:59;18.02;;;4.75;;
69573;SDS011;62840;52.366;5.980;2023-11-19T13:03:30;16.30;;;3.97;;
69573;SDS011;62840;52.366;5.980;2023-11-19T13:06:03;17.15;;;5.07;;
69573;SDS011;62840;52.366;5.980;2023-11-19T13:08:37;21.67;;;8.88;;
69573;SDS011;62840;52.366;5.980;2023-11-19T13:11:05;19.13;;;7.88;;
69573;SDS011;62840;52.366;5.980;2023-11-19T13:13:31;17.95;;;4.25;;
69573;SDS011;62840;52.366;5.980;2023-11-19T13:16:01;12.07;;;4.47;;
69573;SDS011;62840;52.366;5.980;2023-11-19T13:18:28;16.75;;;3.63;;
69573;SDS011;62840;52.366;5.980;2023-11-19T13:20:54;12.73;;;3.00;;
69573;SDS011;62840;52.366;5.980;2023-11-19T13:23:22;11.60;;;2.80;;
69573;SDS011;62840;52.366;5.980;2023-11-19T13:25:48;18.05;;;6.25;;
69573;SDS011;62840;52.366;5.980;2023-11-19T13:28:14;18.77;;;4.43;;
69573;SDS011;62840;52.366;5.980;2023-11-19T13:30:39;15.87;;;3.23;;
69573;SDS011;62840;52.366;5.980;2023-11-19T13:33:05;18.48;;;4.38;;
69573;SDS011;62840;52.366;5.980;2023-11-19T13:35:31;14.40;;;2.67;;
69573;SDS011;62840;52.366;5.980;2023-11-19T13:37:57;13.30;;;2.67;;
69573;SDS011;62840;52.366;5.980;2023-11-19T13:40:25;14.73;;;3.10;;
69573;SDS011;62840;52.366;5.980;2023-11-19T13:42:51;17.50;;;3.97;;
69573;SDS011;62840;52.366;5.980;2023-11-19T13:45:17;15.75;;;3.90;;
69573;SDS011;62840;52.366;5.980;2023-11-19T13:47:43;14.07;;;2.75;;
69573;SDS011;62840;52.366;5.980;2023-11-19T13:50:11;12.93;;;2.50;;
69573;SDS011;62840;52.366;5.980;2023-11-19T13:52:38;11.57;;;1.92;;
69573;SDS011;62840;52.366;5.980;2023-11-19T13:55:07;12.80;;;2.05;;
69573;SDS011;62840;52.366;5.980;2023-11-19T13:57:37;10.98;;;2.35;;
69573;SDS011;62840;52.366;5.980;2023-11-19T14:00:06;16.80;;;3.20;;
69573;SDS011;62840;52.366;5.980;2023-11-19T14:02:34;10.57;;;2.80;;
69573;SDS011;62840;52.366;5.980;2023-11-19T14:05:00;14.50;;;2.40;;
69573;SDS011;62840;52.366;5.980;2023-11-19T14:07:25;12.20;;;2.20;;
69573;SDS011;62840;52.366;5.980;2023-11-19T14:09:52;9.70;;;2.60;;
69573;SDS011;62840;52.366;5.980;2023-11-19T14:12:17;9.48;;;1.70;;
69573;SDS011;62840;52.366;5.980;2023-11-19T14:14:46;9.63;;;2.10;;
69573;SDS011;62840;52.366;5.980;2023-11-19T14:17:12;9.55;;;1.98;;
69573;SDS011;62840;52.366;5.980;2023-11-19T14:19:37;8.88;;;2.05;;
69573;SDS011;62840;52.366;5.980;2023-11-19T14:22:03;14.33;;;1.77;;
69573;SDS011;62840;52.366;5.980;2023-11-19T14:24:29;11.20;;;1.95;;
69573;SDS011;62840;52.366;5.980;2023-11-19T14:26:55;11.67;;;1.60;;
69573;SDS011;62840;52.366;5.980;2023-11-19T14:29:20;8.80;;;2.15;;
69573;SDS011;62840;52.366;5.980;2023-11-19T14:31:49;12.87;;;1.73;;
69573;SDS011;62840;52.366;5.980;2023-11-19T14:34:14;8.95;;;1.50;;
69573;SDS011;62840;52.366;5.980;2023-11-19T14:36:40;12.45;;;3.00;;
69573;SDS011;62840;52.366;5.980;2023-11-19T14:39:06;11.95;;;2.05;;
69573;SDS011;62840;52.366;5.980;2023-11-19T14:41:32;10.70;;;1.98;;
69573;SDS011;62840;52.366;5.980;2023-11-19T14:43:57;9.10;;;1.70;;